Glidden, Wisconsin
Current Conditions -  °F | °C
As of 5:35 AM on Tuesday 21 Oct 2014 (Local Time) from KPBH Reporting Station
Overcast Overcast  
Wind Chill: 33°   Ceiling: 1900
Heat Index: 39°   Visibility: 10mi
Dew Point: 34°   Wind: 9mph
Humidity: 82%   Direction: 50°NE
Pressure: 30.16"   Gusts: 16mph
Location:  46.13°N, 90.58°W
Report Text: KPBH 211035Z AUTO 05008G14KT 10SM OVC019 04/01 A3016 RMK AO2 T00380009
Loading
Personal Weather Stations






























Interactive Weather Map
Tropical Storm Tracking
New forecast layout! Learn more

10-Day Weather Forecast

Advertisements
Track Severe Weather on mobile